地図

経路データ

SID SEASON NUMBER BASIN SUBBASIN NAME ISO_TIME NATURE LAT LON WMO_WIND WMO_PRES WMO_AGENCY TRACK_TYPE DIST2LAND LANDFALL IFLAG USA_AGENCY USA_ATCF_ID USA_LAT USA_LON USA_RECORD USA_STATUS USA_WIND USA_PRES USA_SSHS USA_R34_NE USA_R34_SE USA_R34_SW USA_R34_NW USA_R50_NE USA_R50_SE USA_R50_SW USA_R50_NW USA_R64_NE USA_R64_SE USA_R64_SW USA_R64_NW USA_POCI USA_ROCI USA_RMW USA_EYE TOKYO_LAT TOKYO_LON TOKYO_GRADE TOKYO_WIND TOKYO_PRES TOKYO_R50_DIR TOKYO_R50_LONG TOKYO_R50_SHORT TOKYO_R30_DIR TOKYO_R30_LONG TOKYO_R30_SHORT TOKYO_LAND CMA_LAT CMA_LON CMA_CAT CMA_WIND CMA_PRES HKO_LAT HKO_LON HKO_CAT HKO_WIND HKO_PRES NEWDELHI_LAT NEWDELHI_LON NEWDELHI_GRADE NEWDELHI_WIND NEWDELHI_PRES NEWDELHI_CI NEWDELHI_DP NEWDELHI_POCI REUNION_LAT REUNION_LON REUNION_TYPE REUNION_WIND REUNION_PRES REUNION_TNUM REUNION_CI REUNION_RMW REUNION_R34_NE REUNION_R34_SE REUNION_R34_SW REUNION_R34_NW REUNION_R50_NE REUNION_R50_SE REUNION_R50_SW REUNION_R50_NW REUNION_R64_NE REUNION_R64_SE REUNION_R64_SW REUNION_R64_NW BOM_LAT BOM_LON BOM_TYPE BOM_WIND BOM_PRES BOM_TNUM BOM_CI BOM_RMW BOM_R34_NE BOM_R34_SE BOM_R34_SW BOM_R34_NW BOM_R50_NE BOM_R50_SE BOM_R50_SW BOM_R50_NW BOM_R64_NE BOM_R64_SE BOM_R64_SW BOM_R64_NW BOM_ROCI BOM_POCI BOM_EYE BOM_POS_METHOD BOM_PRES_METHOD NADI_LAT NADI_LON NADI_CAT NADI_WIND NADI_PRES WELLINGTON_LAT WELLINGTON_LON WELLINGTON_WIND WELLINGTON_PRES DS824_LAT DS824_LON DS824_STAGE DS824_WIND DS824_PRES TD9636_LAT TD9636_LON TD9636_STAGE TD9636_WIND TD9636_PRES TD9635_LAT TD9635_LON TD9635_WIND TD9635_PRES TD9635_ROCI NEUMANN_LAT NEUMANN_LON NEUMANN_CLASS NEUMANN_WIND NEUMANN_PRES MLC_LAT MLC_LON MLC_CLASS MLC_WIND MLC_PRES USA_GUST BOM_GUST BOM_GUST_PER REUNION_GUST REUNION_GUST_PER USA_SEAHGT USA_SEARAD_NE USA_SEARAD_SE USA_SEARAD_SW USA_SEARAD_NW STORM_SPEED STORM_DIR
1923044S14057 1923 11 SI MM NOT_NAMED 1923-02-13 06:00:00 NR -13.5000 56.6000 reunion main 684 684 _____O________ -1 -13.5000 56.6000 99 9.90000 1 239
1923044S14057 1923 11 SI MM NOT_NAMED 1923-02-13 09:00:00 NR -13.5205 56.5675 main 684 674 _____P________ -1 -13.5205 56.5675 99 1 234
1923044S14057 1923 11 SI MM NOT_NAMED 1923-02-13 12:00:00 NR -13.5461 56.5297 main 674 670 _____P________ -1 -13.5461 56.5297 99 1 230
1923044S14057 1923 11 SI MM NOT_NAMED 1923-02-13 15:00:00 NR -13.5822 56.4815 main 670 660 _____P________ -1 -13.5822 56.4815 99 1 232
1923044S14057 1923 11 SI MM NOT_NAMED 1923-02-13 18:00:00 NR -13.6339 56.4176 main 660 646 _____P________ -1 -13.6339 56.4176 99 2 229
1923044S14057 1923 11 SI MM NOT_NAMED 1923-02-13 21:00:00 NR -13.7063 56.3328 main 646 633 _____P________ -1 -13.7063 56.3328 99 3 228
1923044S14057 1923 11 SI MM NOT_NAMED 1923-02-14 00:00:00 NR -13.8047 56.2218 main 633 620 _____P________ -1 -13.8047 56.2218 99 3 227
1923044S14057 1923 11 SI MM NOT_NAMED 1923-02-14 03:00:00 NR -13.9342 56.0794 main 620 594 _____P________ -1 -13.9342 56.0794 99 4 227
1923044S14057 1923 11 SI MM NOT_NAMED 1923-02-14 06:00:00 NR -14.1000 55.9000 reunion main 594 568 _____O________ -1 -14.1000 55.9000 99 9.90000 5 226
1923044S14057 1923 11 SI MM NOT_NAMED 1923-02-14 09:00:00 NR -14.3055 55.6813 main 568 532 _____P________ -1 -14.3055 55.6813 99 6 225
1923044S14057 1923 11 SI MM NOT_NAMED 1923-02-14 12:00:00 NR -14.5476 55.4325 main 532 507 _____P________ -1 -14.5476 55.4325 99 7 224
1923044S14057 1923 11 SI MM NOT_NAMED 1923-02-14 15:00:00 NR -14.8213 55.1659 main 507 495 _____P________ -1 -14.8213 55.1659 99 4 217
1923044S14057 1923 11 SI MM NOT_NAMED 1923-02-14 18:00:00 NR -14.8976 55.1551 main 506 494 _____P____O___ -1 -15.1220 54.8938 99 -14.0000 56.2000 2 2 204
1923044S14057 1923 11 SI MM NOT_NAMED 1923-02-14 21:00:00 NR -15.0346 55.0647 main 494 472 _____P____P___ -1 -15.4448 54.6287 99 -14.2143 55.9369 2 4 215
1923044S14057 1923 11 SI MM NOT_NAMED 1923-02-15 00:00:00 NR -15.1970 54.9383 main 472 461 _____P____P___ -1 -15.7851 54.3829 99 -14.4128 55.6787 2 4 218
1923044S14057 1923 11 SI MM NOT_NAMED 1923-02-15 03:00:00 NR -15.3591 54.8002 main 461 439 _____P____P___ -1 -16.1384 54.1691 99 -14.5799 55.4312 2 5 219
1923044S14057 1923 11 SI MM NOT_NAMED 1923-02-15 06:00:00 NR -15.6000 54.6000 reunion main 440 429 _____O____O___ -1 -16.5000 54.0000 99 9.90000 -14.7000 55.2000 2 6 217
1923044S14057 1923 11 SI MM NOT_NAMED 1923-02-15 09:00:00 NR -15.8216 54.4451 main 420 412 _____P____P___ -1 -16.8714 53.9034 99 -14.7717 54.9869 2 5 211
1923044S14057 1923 11 SI MM NOT_NAMED 1923-02-15 12:00:00 NR -16.0542 54.3127 main 414 406 _____P____P___ -1 -17.2588 53.8473 99 -14.8497 54.7781 2 6 206
1923044S14057 1923 11 SI MM NOT_NAMED 1923-02-15 15:00:00 NR -16.3288 54.1912 main 408 401 _____P____P___ -1 -17.6546 53.8271 99 -15.0029 54.5553 2 7 201
1923044S14057 1923 11 SI MM NOT_NAMED 1923-02-15 18:00:00 NR -16.6757 54.0691 main 411 401 _____P____O___ -1 -18.0515 53.8381 99 -15.3000 54.3000 2 9 200
1923044S14057 1923 11 SI MM NOT_NAMED 1923-02-15 21:00:00 NR -17.1516 53.8758 main 414 404 _____P____P___ -1 -18.4419 53.8757 99 -15.8613 53.8759 2 11 200
1923044S14057 1923 11 SI MM NOT_NAMED 1923-02-16 00:00:00 NR -17.6897 53.6840 main 405 360 _____P____P___ -1 -18.8185 53.9351 99 -16.5608 53.4330 2 11 196
1923044S14057 1923 11 SI MM NOT_NAMED 1923-02-16 03:00:00 NR -18.2392 53.5423 main 365 318 _____P____P___ -1 -19.1737 54.0115 99 -17.3048 53.0730 2 11 189
1923044S14057 1923 11 SI MM NOT_NAMED 1923-02-16 06:00:00 NR -18.7500 53.5000 reunion main 318 276 _____O____O___ -1 -19.5000 54.1000 99 9.90000 -18.0000 52.9000 2 9 176
1923044S14057 1923 11 SI MM NOT_NAMED 1923-02-16 09:00:00 NR -19.1630 53.6100 main 268 229 _____P____P___ -1 -19.7746 54.1583 99 -18.5514 53.0618 2 8 159
1923044S14057 1923 11 SI MM NOT_NAMED 1923-02-16 12:00:00 NR -19.5288 53.8237 main 229 183 _____P____P___ -1 -20.0221 54.2314 99 -19.0356 53.4160 2 8 147
1923044S14057 1923 11 SI MM NOT_NAMED 1923-02-16 15:00:00 NR -19.8494 54.0911 main 183 144 _____P____P___ -1 -20.2470 54.3196 99 -19.4518 53.8625 2 8 140
1923044S14057 1923 11 SI MM NOT_NAMED 1923-02-16 18:00:00 NR -20.1271 54.3617 main 137 99 _____P____O___ -1 -20.4543 54.4234 99 -19.8000 54.3000 2 7 140
1923044S14057 1923 11 SI MM NOT_NAMED 1923-02-16 21:00:00 NR -20.3730 54.5633 main 99 76 _____P____P___ -1 -20.6485 54.5430 99 -20.0975 54.5837 2 6 141
1923044S14057 1923 11 SI MM NOT_NAMED 1923-02-17 00:00:00 NR -20.5832 54.7586 main 68 45 _____P____P___ -1 -20.8344 54.6787 99 -20.3321 54.8386 2 5 138
1923044S14057 1923 11 SI MM NOT_NAMED 1923-02-17 03:00:00 NR -20.7712 54.9525 main 38 23 _____P____P___ -1 -21.0167 54.8309 99 -20.5257 55.0741 2 5 135
1923044S14057 1923 11 SI MM NOT_NAMED 1923-02-17 06:00:00 NR -20.9500 55.1500 reunion main 15 0 _____O____O___ -1 -21.2000 55.0000 99 9.90000 -20.7000 55.3000 2 5 135
1923044S14057 1923 11 SI MM NOT_NAMED 1923-02-17 09:00:00 NR -21.1547 55.3671 main 0 0 _____P____P___ -1 -21.4242 55.1977 99 -20.8852 55.5366 2 6 134
1923044S14057 1923 11 SI MM NOT_NAMED 1923-02-17 12:00:00 NR -21.3530 55.5909 main 0 0 _____P____P___ -1 -21.6486 55.4163 99 -21.0574 55.7654 2 6 133
1923044S14057 1923 11 SI MM NOT_NAMED 1923-02-17 15:00:00 NR -21.5478 55.8180 main 22 22 _____P____P___ -1 -21.8697 55.6494 99 -21.2259 55.9865 2 6 133
1923044S14057 1923 11 SI MM NOT_NAMED 1923-02-17 18:00:00 NR -21.7419 56.0452 main 49 49 _____P____O___ -1 -22.0837 55.8904 99 -21.4000 56.2000 2 6 135
1923044S14057 1923 11 SI MM NOT_NAMED 1923-02-17 21:00:00 NR -21.9438 56.2498 main 78 78 _____P____P___ -1 -22.2873 56.1326 99 -21.6004 56.3670 2 6 137
1923044S14057 1923 11 SI MM NOT_NAMED 1923-02-18 00:00:00 NR -22.1417 56.4513 main 115 115 _____P____P___ -1 -22.4768 56.3695 99 -21.8066 56.5331 2 5 135
1923044S14057 1923 11 SI MM NOT_NAMED 1923-02-18 03:00:00 NR -22.3292 56.6634 main 145 145 _____P____P___ -1 -22.6489 56.5942 99 -22.0095 56.7327 2 5 131
1923044S14057 1923 11 SI MM NOT_NAMED 1923-02-18 06:00:00 NR -22.5000 56.9000 reunion main 175 175 _____O____O___ -1 -22.8000 56.8000 99 9.90000 -22.2000 57.0000 2 6 124
1923044S14057 1923 11 SI MM NOT_NAMED 1923-02-18 09:00:00 NR -22.6494 57.1707 main 204 204 _____P____P___ -1 -22.9279 56.9817 99 -22.3708 57.3597 2 6 123
1923044S14057 1923 11 SI MM NOT_NAMED 1923-02-18 12:00:00 NR -22.8160 57.4218 main 235 235 _____P____P___ -1 -23.0346 57.1409 99 -22.5245 57.7965 2 5 128
1923044S14057 1923 11 SI MM NOT_NAMED 1923-02-18 15:00:00 NR -22.9707 57.6154 main 265 265 _____P____P___ -1 -23.1232 57.2805 99 -22.6658 58.2850 2 4 141
1923044S14057 1923 11 SI MM NOT_NAMED 1923-02-18 18:00:00 NR -23.1173 57.6832 main 280 275 _____P____O___ -1 -23.1966 57.4040 99 -22.8000 58.8000 2 3 199
1923044S14057 1923 11 SI MM NOT_NAMED 1923-02-18 21:00:00 NR -23.2580 57.5144 main 283 283 _____P________ -1 -23.2580 57.5144 99 2 2 200
1923044S14057 1923 11 SI MM NOT_NAMED 1923-02-19 00:00:00 NR -23.3104 57.6150 main 290 290 _____P________ -1 -23.3104 57.6150 99 2 2 119
1923044S14057 1923 11 SI MM NOT_NAMED 1923-02-19 03:00:00 NR -23.3567 57.7091 main 305 305 _____P________ -1 -23.3567 57.7091 99 2 2 118
1923044S14057 1923 11 SI MM NOT_NAMED 1923-02-19 06:00:00 NR -23.4000 57.8000 reunion main 312 _____O________ -1 -23.4000 57.8000 99 9.90000 2 119

IBTrACS Databaseについて

本データベースは、米国NOAAが公開する1842年以降の世界の熱帯低気圧のベストトラックデータアーカイブInternational Best Track Archive for Climate Stewardship (IBTrACS)を、ウェブで閲覧しやすい形式に変換したものです。

最終更新日:2021-12-06